createdAt,value
2022-08-11T00:02:38.372Z,99671.05
2022-08-11T00:05:09.504Z,99665.47
2022-08-11T00:07:52.655Z,99667.59
2022-08-11T00:10:29.853Z,99667.27
2022-08-11T00:13:03.774Z,99667.46
2022-08-11T00:15:44.242Z,99668.17
2022-08-11T00:18:13.642Z,99664.30
2022-08-11T00:20:44.071Z,99659.77
2022-08-11T00:23:19.842Z,99658.48
2022-08-11T00:25:52.071Z,99659.91
2022-08-11T00:28:34.423Z,99658.92
2022-08-11T00:31:08.044Z,99660.68
2022-08-11T00:33:44.518Z,99658.20
2022-08-11T00:36:19.787Z,99661.21
2022-08-11T00:38:52.657Z,99658.06
2022-08-11T00:41:36.420Z,99658.90
2022-08-11T00:44:04.037Z,99659.98
2022-08-11T00:46:55.857Z,99662.23
2022-08-11T00:49:43.211Z,99661.88
2022-08-11T00:52:28.921Z,99656.65
2022-08-11T00:55:18.311Z,99657.27
2022-08-11T00:58:23.401Z,99657.31
2022-08-11T01:01:18.522Z,99657.19
2022-08-11T01:04:01.417Z,99652.74
2022-08-11T01:06:50.319Z,99656.95
2022-08-11T01:09:52.153Z,99659.77
2022-08-11T01:12:40.736Z,99658.64
2022-08-11T01:15:37.521Z,99652.59
2022-08-11T01:18:44.083Z,99655.67
2022-08-11T01:21:40.310Z,99655.60
2022-08-11T01:24:38.640Z,99652.70
2022-08-11T01:27:49.305Z,99650.84
2022-08-11T01:30:48.852Z,99649.91
2022-08-11T01:33:55.766Z,99649.84
2022-08-11T01:37:00.769Z,99643.68
2022-08-11T01:40:09.340Z,99643.35
2022-08-11T01:43:35.872Z,99640.38
2022-08-11T01:46:23.632Z,99643.04
2022-08-11T01:50:02.882Z,99642.88
2022-08-11T01:52:03.162Z,99642.50
2022-08-11T01:54:49.505Z,99646.88
2022-08-11T01:57:35.444Z,99640.45
2022-08-11T02:00:12.413Z,99640.10
2022-08-11T02:02:58.573Z,99641.84
2022-08-11T02:05:56.339Z,99640.66
2022-08-11T02:08:44.182Z,99642.14
2022-08-11T02:11:35.346Z,99640.05
2022-08-11T02:14:10.841Z,99636.20
2022-08-11T02:17:11.878Z,99637.33
2022-08-11T02:20:13.850Z,99636.79
2022-08-11T02:23:12.469Z,99643.14
2022-08-11T02:25:58.863Z,99645.08
2022-08-11T02:28:46.648Z,99644.89
2022-08-11T02:32:15.768Z,99645.98
2022-08-11T02:35:00.781Z,99652.75
2022-08-11T02:37:34.561Z,99644.47
2022-08-11T02:40:17.696Z,99649.10
2022-08-11T02:42:45.633Z,99645.29
2022-08-11T02:45:40.076Z,99640.73
2022-08-11T02:48:43.859Z,99641.44
2022-08-11T02:51:35.686Z,99643.22
2022-08-11T02:54:21.429Z,99649.30
2022-08-11T02:57:04.521Z,99652.38
2022-08-11T02:59:51.065Z,99653.27
2022-08-11T03:02:46.806Z,99655.91
2022-08-11T03:05:41.887Z,99654.27
2022-08-11T03:08:30.126Z,99647.66
2022-08-11T03:11:26.114Z,99651.71
2022-08-11T03:14:28.299Z,99652.79
2022-08-11T03:17:12.931Z,99658.38
2022-08-11T03:19:53.771Z,99655.92
2022-08-11T03:22:38.910Z,99657.61
2022-08-11T03:25:16.106Z,99660.02
2022-08-11T03:27:54.074Z,99658.94
2022-08-11T03:30:28.232Z,99661.77
2022-08-11T03:33:37.794Z,99663.00
2022-08-11T03:36:54.557Z,99660.11
2022-08-11T03:39:56.127Z,99665.02
2022-08-11T03:42:47.491Z,99663.76
2022-08-11T03:45:57.429Z,99661.70
2022-08-11T03:48:58.944Z,99667.67
2022-08-11T03:51:51.525Z,99665.05
2022-08-11T03:54:43.234Z,99658.40
2022-08-11T03:57:44.305Z,99670.41
2022-08-11T04:00:50.325Z,99669.59
2022-08-11T04:03:36.401Z,99669.76
2022-08-11T04:06:45.899Z,99672.46
2022-08-11T04:09:47.552Z,99670.48
2022-08-11T04:12:47.551Z,99671.99
2022-08-11T04:15:57.395Z,99667.30
2022-08-11T04:19:07.747Z,99668.59
2022-08-11T04:21:35.442Z,99660.29
2022-08-11T04:24:33.228Z,99657.52
2022-08-11T04:27:36.925Z,99644.45
2022-08-11T04:30:22.880Z,99649.15
2022-08-11T04:33:36.482Z,99647.97
2022-08-11T04:36:52.808Z,99650.82
2022-08-11T04:39:57.392Z,99645.15
2022-08-11T04:43:18.686Z,99650.50
2022-08-11T04:46:06.442Z,99648.17
2022-08-11T04:49:25.814Z,99647.33
2022-08-11T04:52:41.653Z,99646.41
2022-08-11T04:55:58.894Z,99649.64
2022-08-11T04:59:03.523Z,99649.25
2022-08-11T05:01:55.579Z,99649.36
2022-08-11T05:04:59.983Z,99648.16
2022-08-11T05:07:46.027Z,99646.40
2022-08-11T05:10:25.850Z,99650.90
2022-08-11T05:12:55.308Z,99658.52
2022-08-11T05:16:01.334Z,99658.07
2022-08-11T05:18:48.724Z,99661.08
2022-08-11T05:21:44.989Z,99657.06
2022-08-11T05:25:14.980Z,99663.17
2022-08-11T05:28:30.075Z,99661.05
2022-08-11T05:31:21.756Z,99661.33
2022-08-11T05:34:11.156Z,99657.88
2022-08-11T05:36:50.628Z,99658.13
2022-08-11T05:39:44.634Z,99665.65
2022-08-11T05:42:31.692Z,99665.58
2022-08-11T05:45:23.038Z,99659.90
2022-08-11T05:48:10.324Z,99660.11
2022-08-11T05:50:58.619Z,99660.98
2022-08-11T05:53:46.259Z,99662.34
2022-08-11T05:56:21.044Z,99658.40
2022-08-11T05:58:53.634Z,99657.86
2022-08-11T06:01:23.481Z,99660.66
2022-08-11T06:04:13.623Z,99653.80
2022-08-11T06:06:57.966Z,99652.94
2022-08-11T06:09:34.934Z,99656.08
2022-08-11T06:12:15.985Z,99652.95
2022-08-11T06:14:46.236Z,99652.95
2022-08-11T06:17:14.682Z,99652.45
2022-08-11T06:19:47.710Z,99650.71
2022-08-11T06:22:21.825Z,99653.20
2022-08-11T06:25:01.590Z,99649.43
2022-08-11T06:27:35.497Z,99653.98
2022-08-11T06:30:15.563Z,99657.28
2022-08-11T06:32:51.495Z,99656.69
2022-08-11T06:35:46.279Z,99656.85
2022-08-11T06:38:32.257Z,99661.96
2022-08-11T06:41:26.443Z,99651.52
2022-08-11T06:44:07.655Z,99657.98
2022-08-11T06:46:41.791Z,99652.52
2022-08-11T06:49:30.697Z,99650.58
2022-08-11T06:52:34.777Z,99652.00
2022-08-11T06:55:07.639Z,99650.91
2022-08-11T06:57:58.186Z,99651.89
2022-08-11T07:00:29.666Z,99648.60
2022-08-11T07:03:11.805Z,99650.35
2022-08-11T07:06:06.563Z,99646.77
2022-08-11T07:09:06.065Z,99642.40
2022-08-11T07:12:08.852Z,99640.17
2022-08-11T07:15:00.922Z,99633.89
2022-08-11T07:17:32.012Z,99634.06
2022-08-11T07:20:21.679Z,99630.96
2022-08-11T07:23:13.720Z,99625.10
2022-08-11T07:26:02.168Z,99623.34
2022-08-11T07:28:52.661Z,99624.89
2022-08-11T07:31:29.386Z,99624.86
2022-08-11T07:34:19.379Z,99625.23
2022-08-11T07:36:53.700Z,99621.54
2022-08-11T07:39:27.445Z,99619.59
2022-08-11T07:41:58.520Z,99618.05
2022-08-11T07:44:35.087Z,99619.27
2022-08-11T07:47:22.092Z,99620.86
2022-08-11T07:50:12.834Z,99622.33
2022-08-11T07:52:40.958Z,99620.15
2022-08-11T07:55:14.673Z,99613.55
2022-08-11T07:58:16.164Z,99613.27
2022-08-11T08:01:22.335Z,99609.90
2022-08-11T08:04:10.332Z,99617.06
2022-08-11T08:06:57.679Z,99618.77
2022-08-11T08:09:44.541Z,99621.51
2022-08-11T08:12:31.975Z,99613.58
2022-08-11T08:15:20.249Z,99614.61
2022-08-11T08:18:09.476Z,99611.57
2022-08-11T08:20:50.674Z,99614.25
2022-08-11T08:23:34.354Z,99613.97
2022-08-11T08:26:26.252Z,99612.39
2022-08-11T08:29:16.581Z,99616.16
2022-08-11T08:31:48.531Z,99605.94
2022-08-11T08:34:17.731Z,99606.14
2022-08-11T08:36:49.423Z,99599.59
2022-08-11T08:39:22.033Z,99602.61
2022-08-11T08:41:54.868Z,99591.89
2022-08-11T08:44:41.534Z,99594.25
2022-08-11T08:47:43.069Z,99592.86
2022-08-11T08:50:16.634Z,99599.52
2022-08-11T08:53:12.023Z,99597.30
2022-08-11T08:55:45.322Z,99586.47
2022-08-11T08:58:15.951Z,99581.00
2022-08-11T09:00:46.854Z,99581.45
2022-08-11T09:03:39.902Z,99588.00
2022-08-11T09:06:03.110Z,99585.33
2022-08-11T09:08:33.864Z,99579.76
2022-08-11T09:11:22.788Z,99572.55
2022-08-11T09:14:04.874Z,99566.82
2022-08-11T09:16:39.263Z,99558.55
2022-08-11T09:19:08.273Z,99560.77
2022-08-11T09:21:48.150Z,99549.77
2022-08-11T09:24:38.384Z,99546.69
2022-08-11T09:27:08.490Z,99547.70
2022-08-11T09:29:38.769Z,99556.56
2022-08-11T09:32:08.487Z,99556.35
2022-08-11T09:34:37.497Z,99556.12
2022-08-11T09:37:55.803Z,99560.27
2022-08-11T09:42:23.616Z,99563.52
2022-08-11T09:43:39.194Z,99561.28
2022-08-11T09:46:08.950Z,99563.90
2022-08-11T09:48:40.568Z,99565.09
2022-08-11T09:51:10.080Z,99559.89
2022-08-11T09:54:02.673Z,99563.20
2022-08-11T09:56:50.639Z,99562.35
2022-08-11T09:59:22.014Z,99562.84
2022-08-11T10:01:57.086Z,99569.58
2022-08-11T10:04:32.881Z,99564.88
2022-08-11T10:07:04.461Z,99560.64
2022-08-11T10:09:38.389Z,99565.23
2022-08-11T10:12:10.980Z,99573.29
2022-08-11T10:15:00.713Z,99579.80
2022-08-11T10:17:33.154Z,99572.31
2022-08-11T10:20:05.900Z,99576.79
2022-08-11T10:22:54.247Z,99579.49
2022-08-11T10:25:41.227Z,99587.42
2022-08-11T10:28:28.583Z,99586.75
2022-08-11T10:31:17.283Z,99585.30
2022-08-11T10:34:03.570Z,99587.67
2022-08-11T10:36:34.218Z,99586.39
2022-08-11T10:39:06.302Z,99583.09
2022-08-11T10:42:06.837Z,99579.55
2022-08-11T10:44:44.646Z,99573.16
2022-08-11T10:47:34.061Z,99569.86
2022-08-11T10:50:22.556Z,99565.52
2022-08-11T10:53:09.333Z,99555.70
2022-08-11T10:55:58.633Z,99555.72
2022-08-11T10:58:45.945Z,99558.48
2022-08-11T11:01:15.870Z,99556.76
2022-08-11T11:03:44.595Z,99557.98
2022-08-11T11:06:29.433Z,99559.54
2022-08-11T11:09:14.887Z,99545.10
2022-08-11T11:12:11.522Z,99545.32
2022-08-11T11:15:01.018Z,99544.23
2022-08-11T11:18:04.921Z,99541.30
2022-08-11T11:20:47.171Z,99537.16
2022-08-11T11:23:32.843Z,99539.71
2022-08-11T11:26:14.503Z,99531.64
2022-08-11T11:29:03.240Z,99530.10
2022-08-11T11:31:38.807Z,99532.36
2022-08-11T11:34:20.120Z,99528.26
2022-08-11T11:36:51.758Z,99524.10
2022-08-11T11:39:25.577Z,99527.19
2022-08-11T11:42:03.349Z,99522.59
2022-08-11T11:44:32.725Z,99516.45
2022-08-11T11:47:01.484Z,99505.60
2022-08-11T11:49:32.475Z,99502.61
2022-08-11T11:52:01.259Z,99496.91
2022-08-11T11:54:31.893Z,99496.02
2022-08-11T11:57:21.727Z,99487.87
2022-08-11T12:00:10.637Z,99482.54
2022-08-11T12:02:40.765Z,99472.00
2022-08-11T12:05:10.354Z,99473.16
2022-08-11T12:08:10.426Z,99471.95
2022-08-11T12:10:47.750Z,99475.15
2022-08-11T12:13:37.586Z,99474.98
2022-08-11T12:16:32.825Z,99467.98
2022-08-11T12:18:57.093Z,99472.77
2022-08-11T12:21:26.439Z,99474.89
2022-08-11T12:24:15.505Z,99478.10
2022-08-11T12:27:15.051Z,99474.16
2022-08-11T12:29:41.145Z,99468.95
2022-08-11T12:32:12.328Z,99462.91
2022-08-11T12:34:40.402Z,99463.92
2022-08-11T12:37:13.719Z,99467.75
2022-08-11T12:40:16.553Z,99467.66
2022-08-11T12:43:36.930Z,99465.20
2022-08-11T12:46:10.643Z,99463.52
2022-08-11T12:49:04.239Z,99460.23
2022-08-11T12:52:01.432Z,99458.66
2022-08-11T12:54:51.926Z,99454.90
2022-08-11T12:58:04.347Z,99451.92
2022-08-11T13:00:51.844Z,99452.82
2022-08-11T13:03:39.815Z,99451.78
2022-08-11T13:06:08.020Z,99442.06
2022-08-11T13:08:39.522Z,99445.00
2022-08-11T13:11:56.199Z,99444.95
2022-08-11T13:14:17.122Z,99440.59
2022-08-11T13:17:05.379Z,99439.05
2022-08-11T13:19:34.633Z,99434.39
2022-08-11T13:22:07.484Z,99428.63
2022-08-11T13:24:36.628Z,99422.86
2022-08-11T13:27:05.075Z,99415.38
2022-08-11T13:29:33.323Z,99412.60
2022-08-11T13:32:01.153Z,99410.36
2022-08-11T13:34:31.415Z,99410.09
2022-08-11T13:37:02.171Z,99409.77
2022-08-11T13:39:32.418Z,99404.05
2022-08-11T13:42:02.597Z,99401.16
2022-08-11T13:44:33.472Z,99402.98
2022-08-11T13:47:04.469Z,99403.53
2022-08-11T13:49:35.918Z,99408.70
2022-08-11T13:52:06.693Z,99406.64
2022-08-11T13:54:38.565Z,99412.13
2022-08-11T13:57:13.649Z,99419.52
2022-08-11T14:00:09.701Z,99458.89
2022-08-11T14:02:43.698Z,99431.59
2022-08-11T14:05:18.136Z,99423.89
2022-08-11T14:07:52.352Z,99431.46
2022-08-11T14:10:25.437Z,99425.29
2022-08-11T14:13:18.634Z,99419.15
2022-08-11T14:15:49.547Z,99410.99
2022-08-11T14:18:20.474Z,99414.84
2022-08-11T14:21:13.841Z,99418.35
2022-08-11T14:23:45.823Z,99417.61
2022-08-11T14:26:29.614Z,99435.95
2022-08-11T14:29:11.106Z,99489.63
2022-08-11T14:31:45.693Z,99520.98
2022-08-11T14:34:14.739Z,99510.30
2022-08-11T14:36:47.315Z,99490.89
2022-08-11T14:39:18.239Z,99493.55
2022-08-11T14:42:13.397Z,99493.38
2022-08-11T14:45:24.230Z,99491.73
2022-08-11T14:47:54.856Z,99490.16
2022-08-11T14:50:26.004Z,99492.39
2022-08-11T14:52:58.332Z,99478.85
2022-08-11T14:55:47.623Z,99482.20
2022-08-11T14:58:18.502Z,99478.44
2022-08-11T15:00:47.481Z,99474.27
2022-08-11T15:03:15.849Z,99473.82
2022-08-11T15:05:58.329Z,99476.32
2022-08-11T15:08:48.754Z,99471.91
2022-08-11T15:11:37.537Z,99484.73
2022-08-11T15:14:08.007Z,99491.40
2022-08-11T15:17:00.733Z,99497.06
2022-08-11T15:19:40.182Z,99496.42
2022-08-11T15:22:29.379Z,99502.50
2022-08-11T15:25:02.758Z,99504.27
2022-08-11T15:27:50.235Z,99500.64
2022-08-11T15:30:36.716Z,99498.54
2022-08-11T15:33:25.791Z,99495.77
2022-08-11T15:36:14.127Z,99491.73
2022-08-11T15:38:47.719Z,99483.73
2022-08-11T15:41:37.000Z,99476.14
2022-08-11T15:44:51.371Z,99466.85
2022-08-11T15:47:20.455Z,99472.11
2022-08-11T15:50:10.861Z,99477.40
2022-08-11T15:52:48.451Z,99497.60
2022-08-11T15:55:17.008Z,99497.98
2022-08-11T15:58:07.315Z,99498.89
2022-08-11T16:00:58.929Z,99497.29
2022-08-11T16:04:08.222Z,99495.01
2022-08-11T16:06:47.146Z,99491.35
2022-08-11T16:09:33.815Z,99487.34
2022-08-11T16:12:23.167Z,99481.87
2022-08-11T16:15:20.873Z,99482.02
2022-08-11T16:17:52.155Z,99479.41
2022-08-11T16:20:23.424Z,99487.06
2022-08-11T16:23:00.507Z,99484.45
2022-08-11T16:27:05.988Z,99483.67
2022-08-11T16:28:27.021Z,99485.80
2022-08-11T16:30:56.639Z,99488.42
2022-08-11T16:33:48.623Z,99487.91
2022-08-11T16:36:34.763Z,99488.08
2022-08-11T16:39:04.246Z,99482.14
2022-08-11T16:41:53.286Z,99473.59
2022-08-11T16:44:41.076Z,99468.77
2022-08-11T16:47:14.147Z,99467.64
2022-08-11T16:49:52.784Z,99470.24
2022-08-11T16:52:23.735Z,99471.72
2022-08-11T16:54:52.883Z,99472.39
2022-08-11T16:57:44.691Z,99464.94
2022-08-11T17:00:17.916Z,99467.52
2022-08-11T17:03:06.801Z,99466.46
2022-08-11T17:05:55.436Z,99467.58
2022-08-11T17:08:57.577Z,99463.95
2022-08-11T17:11:47.518Z,99462.53
2022-08-11T17:14:35.785Z,99466.42
2022-08-11T17:17:13.510Z,99471.40
2022-08-11T17:20:38.535Z,99471.07
2022-08-11T17:23:01.462Z,99470.23
2022-08-11T17:25:32.385Z,99474.11
2022-08-11T17:28:24.557Z,99469.15
2022-08-11T17:31:21.724Z,99462.02
2022-08-11T17:34:11.969Z,99461.36
2022-08-11T17:36:45.502Z,99456.23
2022-08-11T17:39:15.267Z,99454.81
2022-08-11T17:42:03.545Z,99457.41
2022-08-11T17:44:51.905Z,99460.31
2022-08-11T17:47:38.860Z,99458.73
2022-08-11T17:50:16.700Z,99466.71
2022-08-11T17:53:06.306Z,99474.08
2022-08-11T17:55:54.836Z,99473.96
2022-08-11T17:58:43.332Z,99476.62
2022-08-11T18:01:12.518Z,99480.20
2022-08-11T18:03:41.865Z,99477.17
2022-08-11T18:06:21.791Z,99471.80
2022-08-11T18:09:24.417Z,99478.71
2022-08-11T18:12:13.140Z,99479.10
2022-08-11T18:15:04.876Z,99475.99
2022-08-11T18:17:52.619Z,99483.83
2022-08-11T18:20:39.582Z,99487.55
2022-08-11T18:23:41.680Z,99493.82
2022-08-11T18:26:39.197Z,99493.79
2022-08-11T18:29:26.724Z,99491.64
2022-08-11T18:32:21.211Z,99501.59
2022-08-11T18:35:13.300Z,99500.34
2022-08-11T18:38:04.850Z,99490.99
2022-08-11T18:40:54.133Z,99489.66
2022-08-11T18:43:43.058Z,99487.69
2022-08-11T18:46:32.770Z,99493.23
2022-08-11T18:49:34.260Z,99495.59
2022-08-11T18:52:36.770Z,99495.94
2022-08-11T18:55:28.197Z,99497.25
2022-08-11T18:58:16.501Z,99493.40
2022-08-11T19:01:04.892Z,99489.64
2022-08-11T19:03:54.258Z,99487.48
2022-08-11T19:06:42.742Z,99488.05
2022-08-11T19:09:33.358Z,99487.15
2022-08-11T19:12:20.642Z,99480.17
2022-08-11T19:15:09.183Z,99490.80
2022-08-11T19:18:00.255Z,99491.89
2022-08-11T19:20:49.639Z,99493.17
2022-08-11T19:23:43.544Z,99494.45
2022-08-11T19:26:31.102Z,99493.88
2022-08-11T19:30:04.857Z,99488.27
2022-08-11T19:32:30.580Z,99493.13
2022-08-11T19:35:19.724Z,99489.86
2022-08-11T19:38:08.349Z,99488.56
2022-08-11T19:40:57.780Z,99483.87
2022-08-11T19:43:49.281Z,99484.41
2022-08-11T19:46:41.531Z,99478.26
2022-08-11T19:49:30.105Z,99478.73
2022-08-11T19:52:19.149Z,99473.98
2022-08-11T19:55:08.061Z,99474.73
2022-08-11T19:57:57.619Z,99474.94
2022-08-11T20:00:44.984Z,99476.19
2022-08-11T20:03:32.552Z,99472.02
2022-08-11T20:06:23.485Z,99464.49
2022-08-11T20:09:19.484Z,99462.27
2022-08-11T20:12:12.283Z,99462.11
2022-08-11T20:15:00.767Z,99465.69
2022-08-11T20:17:53.561Z,99468.94
2022-08-11T20:20:43.893Z,99474.49
2022-08-11T20:23:33.465Z,99477.08
2022-08-11T20:26:30.789Z,99482.11
2022-08-11T20:29:18.973Z,99482.54
2022-08-11T20:32:09.280Z,99484.56
2022-08-11T20:34:58.290Z,99481.85
2022-08-11T20:37:50.385Z,99484.46
2022-08-11T20:40:42.585Z,99487.79
2022-08-11T20:44:06.180Z,99486.02
2022-08-11T20:46:44.047Z,99480.56
2022-08-11T20:49:42.314Z,99488.02
2022-08-11T20:52:37.730Z,99490.61
2022-08-11T20:55:46.253Z,99491.31
2022-08-11T20:59:04.046Z,99497.31
2022-08-11T21:01:44.478Z,99499.52
2022-08-11T21:04:31.272Z,99497.84
2022-08-11T21:07:28.749Z,99492.21
2022-08-11T21:10:24.024Z,99490.94
2022-08-11T21:13:25.187Z,99492.19
2022-08-11T21:16:25.345Z,99488.48
2022-08-11T21:20:00.719Z,99489.23
2022-08-11T21:22:33.446Z,99490.06
2022-08-11T21:25:20.729Z,99497.50
2022-08-11T21:28:09.187Z,99494.46
2022-08-11T21:30:58.006Z,99497.86
2022-08-11T21:33:49.931Z,99501.45
2022-08-11T21:36:37.770Z,99499.54
2022-08-11T21:39:26.636Z,99503.56
2022-08-11T21:42:13.927Z,99503.09
2022-08-11T21:45:01.944Z,99506.58
2022-08-11T21:48:00.712Z,99507.27
2022-08-11T21:50:48.346Z,99501.21
2022-08-11T21:53:35.883Z,99503.28
2022-08-11T21:56:25.563Z,99501.96
2022-08-11T21:59:16.100Z,99505.74
2022-08-11T22:02:06.160Z,99497.94
2022-08-11T22:04:55.420Z,99497.45
2022-08-11T22:07:42.741Z,99497.36
2022-08-11T22:10:40.632Z,99495.52
2022-08-11T22:13:30.881Z,99502.49
2022-08-11T22:16:19.298Z,99498.15
2022-08-11T22:19:09.615Z,99507.59
2022-08-11T22:22:03.372Z,99499.25
2022-08-11T22:24:53.434Z,99494.08
2022-08-11T22:27:40.367Z,99488.77
2022-08-11T22:30:29.208Z,99487.84
2022-08-11T22:33:25.639Z,99483.20
2022-08-11T22:36:16.551Z,99476.28
2022-08-11T22:39:04.075Z,99479.33
2022-08-11T22:41:50.834Z,99481.88
2022-08-11T22:44:37.146Z,99480.64
2022-08-11T22:47:23.833Z,99480.29
2022-08-11T22:50:16.468Z,99477.09
2022-08-11T22:53:05.266Z,99470.80
2022-08-11T22:55:52.237Z,99475.60
2022-08-11T22:58:40.321Z,99475.29
2022-08-11T23:01:27.611Z,99472.92
2022-08-11T23:04:15.102Z,99466.58
2022-08-11T23:07:02.080Z,99473.48
2022-08-11T23:09:49.342Z,99473.85
2022-08-11T23:12:37.178Z,99468.86
2022-08-11T23:15:24.670Z,99464.27
2022-08-11T23:18:11.439Z,99460.21
2022-08-11T23:20:58.989Z,99459.37
2022-08-11T23:23:47.478Z,99455.35
2022-08-11T23:26:37.422Z,99457.63
2022-08-11T23:29:26.181Z,99461.92
2022-08-11T23:32:13.664Z,99462.16
2022-08-11T23:35:38.916Z,99461.52
2022-08-11T23:38:11.245Z,99463.05
2022-08-11T23:40:57.629Z,99466.61
2022-08-11T23:43:44.009Z,99467.29
2022-08-11T23:46:30.247Z,99469.42
2022-08-11T23:49:21.491Z,99469.02
2022-08-11T23:52:08.572Z,99462.61
2022-08-11T23:54:56.380Z,99467.64
2022-08-11T23:57:49.018Z,99463.24
